sensor_id;sensor_type;location;lat;lon;timestamp;temperature;humidity
20231;DHT22;10274;49.022;9.338;2023-01-24T00:01:27;3.50;1.00
20231;DHT22;10274;49.022;9.338;2023-01-24T00:03:53;3.40;1.00
20231;DHT22;10274;49.022;9.338;2023-01-24T00:06:20;3.30;1.00
20231;DHT22;10274;49.022;9.338;2023-01-24T00:08:47;3.30;1.00
20231;DHT22;10274;49.022;9.338;2023-01-24T00:11:15;3.30;1.00
20231;DHT22;10274;49.022;9.338;2023-01-24T00:13:42;3.30;1.00
20231;DHT22;10274;49.022;9.338;2023-01-24T00:16:12;3.20;1.00
20231;DHT22;10274;49.022;9.338;2023-01-24T00:18:40;3.20;1.00
20231;DHT22;10274;49.022;9.338;2023-01-24T00:21:07;3.20;1.00
20231;DHT22;10274;49.022;9.338;2023-01-24T00:23:37;3.30;1.00
20231;DHT22;10274;49.022;9.338;2023-01-24T00:26:05;3.30;1.00
20231;DHT22;10274;49.022;9.338;2023-01-24T00:28:33;3.30;1.00
20231;DHT22;10274;49.022;9.338;2023-01-24T00:31:00;3.40;1.00
20231;DHT22;10274;49.022;9.338;2023-01-24T00:33:27;3.30;1.00
20231;DHT22;10274;49.022;9.338;2023-01-24T00:35:54;3.30;1.00
20231;DHT22;10274;49.022;9.338;2023-01-24T00:38:21;3.30;1.00
20231;DHT22;10274;49.022;9.338;2023-01-24T00:40:48;3.30;1.00
20231;DHT22;10274;49.022;9.338;2023-01-24T00:43:15;3.30;1.00
20231;DHT22;10274;49.022;9.338;2023-01-24T00:45:45;3.40;1.00
20231;DHT22;10274;49.022;9.338;2023-01-24T00:48:12;3.30;1.00
20231;DHT22;10274;49.022;9.338;2023-01-24T00:50:39;3.30;1.00
20231;DHT22;10274;49.022;9.338;2023-01-24T00:53:06;3.30;1.00
20231;DHT22;10274;49.022;9.338;2023-01-24T00:55:33;3.30;1.00
20231;DHT22;10274;49.022;9.338;2023-01-24T00:58:00;3.30;1.00
20231;DHT22;10274;49.022;9.338;2023-01-24T01:00:26;3.30;1.00
20231;DHT22;10274;49.022;9.338;2023-01-24T01:02:54;3.30;1.00
20231;DHT22;10274;49.022;9.338;2023-01-24T01:05:21;3.30;1.00
20231;DHT22;10274;49.022;9.338;2023-01-24T01:07:47;3.30;1.00
20231;DHT22;10274;49.022;9.338;2023-01-24T01:10:14;3.30;1.00
20231;DHT22;10274;49.022;9.338;2023-01-24T01:12:41;3.30;1.00
20231;DHT22;10274;49.022;9.338;2023-01-24T01:15:08;3.30;1.00
20231;DHT22;10274;49.022;9.338;2023-01-24T01:17:35;3.30;1.00
20231;DHT22;10274;49.022;9.338;2023-01-24T01:20:04;3.30;1.00
20231;DHT22;10274;49.022;9.338;2023-01-24T01:22:31;3.30;1.00
20231;DHT22;10274;49.022;9.338;2023-01-24T01:24:57;3.30;1.00
20231;DHT22;10274;49.022;9.338;2023-01-24T01:27:24;3.20;1.00
20231;DHT22;10274;49.022;9.338;2023-01-24T01:29:51;3.30;1.00
20231;DHT22;10274;49.022;9.338;2023-01-24T01:32:17;3.30;1.00
20231;DHT22;10274;49.022;9.338;2023-01-24T01:34:44;3.20;1.00
20231;DHT22;10274;49.022;9.338;2023-01-24T01:37:12;3.20;1.00
20231;DHT22;10274;49.022;9.338;2023-01-24T01:39:38;3.20;1.00
20231;DHT22;10274;49.022;9.338;2023-01-24T01:42:05;3.20;1.00
20231;DHT22;10274;49.022;9.338;2023-01-24T01:44:32;3.20;1.00
20231;DHT22;10274;49.022;9.338;2023-01-24T01:47:14;3.20;1.00
20231;DHT22;10274;49.022;9.338;2023-01-24T01:49:45;3.30;1.00
20231;DHT22;10274;49.022;9.338;2023-01-24T01:52:14;3.30;1.00
20231;DHT22;10274;49.022;9.338;2023-01-24T01:54:41;3.20;1.00
20231;DHT22;10274;49.022;9.338;2023-01-24T01:57:11;3.20;1.00
20231;DHT22;10274;49.022;9.338;2023-01-24T01:59:39;3.10;1.00
20231;DHT22;10274;49.022;9.338;2023-01-24T02:02:09;3.20;1.00
20231;DHT22;10274;49.022;9.338;2023-01-24T02:04:38;3.10;1.00
20231;DHT22;10274;49.022;9.338;2023-01-24T02:07:09;3.20;1.00
20231;DHT22;10274;49.022;9.338;2023-01-24T02:09:41;3.30;1.00
20231;DHT22;10274;49.022;9.338;2023-01-24T02:12:11;3.30;1.00
20231;DHT22;10274;49.022;9.338;2023-01-24T02:14:39;3.30;1.00
20231;DHT22;10274;49.022;9.338;2023-01-24T02:17:24;3.20;1.00
20231;DHT22;10274;49.022;9.338;2023-01-24T02:20:01;3.20;1.00
20231;DHT22;10274;49.022;9.338;2023-01-24T02:22:37;3.20;1.00
20231;DHT22;10274;49.022;9.338;2023-01-24T02:25:13;3.20;1.00
20231;DHT22;10274;49.022;9.338;2023-01-24T02:27:42;3.20;1.00
20231;DHT22;10274;49.022;9.338;2023-01-24T02:30:10;3.20;1.00
20231;DHT22;10274;49.022;9.338;2023-01-24T02:32:36;3.20;1.00
20231;DHT22;10274;49.022;9.338;2023-01-24T02:35:04;3.20;1.00
20231;DHT22;10274;49.022;9.338;2023-01-24T02:37:32;3.20;1.00
20231;DHT22;10274;49.022;9.338;2023-01-24T02:40:05;3.10;1.00
20231;DHT22;10274;49.022;9.338;2023-01-24T02:42:35;3.10;1.00
20231;DHT22;10274;49.022;9.338;2023-01-24T02:45:07;3.20;1.00
20231;DHT22;10274;49.022;9.338;2023-01-24T02:47:37;3.20;1.00
20231;DHT22;10274;49.022;9.338;2023-01-24T02:50:05;3.20;1.00
20231;DHT22;10274;49.022;9.338;2023-01-24T02:52:33;3.20;1.00
20231;DHT22;10274;49.022;9.338;2023-01-24T02:55:18;3.10;1.00
20231;DHT22;10274;49.022;9.338;2023-01-24T02:57:44;3.20;1.00
20231;DHT22;10274;49.022;9.338;2023-01-24T03:00:30;3.20;1.00
20231;DHT22;10274;49.022;9.338;2023-01-24T03:02:57;3.20;1.00
20231;DHT22;10274;49.022;9.338;2023-01-24T03:05:23;3.10;1.00
20231;DHT22;10274;49.022;9.338;2023-01-24T03:07:50;3.20;1.00
20231;DHT22;10274;49.022;9.338;2023-01-24T03:10:18;3.30;1.00
20231;DHT22;10274;49.022;9.338;2023-01-24T03:12:45;3.20;1.00
20231;DHT22;10274;49.022;9.338;2023-01-24T03:15:31;3.20;1.00
20231;DHT22;10274;49.022;9.338;2023-01-24T03:18:15;3.20;1.00
20231;DHT22;10274;49.022;9.338;2023-01-24T03:20:59;3.20;1.00
20231;DHT22;10274;49.022;9.338;2023-01-24T03:23:43;3.20;1.00
20231;DHT22;10274;49.022;9.338;2023-01-24T03:26:27;3.20;1.00
20231;DHT22;10274;49.022;9.338;2023-01-24T03:29:11;3.20;1.00
20231;DHT22;10274;49.022;9.338;2023-01-24T03:31:56;3.20;1.00
20231;DHT22;10274;49.022;9.338;2023-01-24T03:34:40;3.20;1.00
20231;DHT22;10274;49.022;9.338;2023-01-24T03:37:14;3.20;1.00
20231;DHT22;10274;49.022;9.338;2023-01-24T03:39:41;3.20;1.00
20231;DHT22;10274;49.022;9.338;2023-01-24T03:42:24;3.10;1.00
20231;DHT22;10274;49.022;9.338;2023-01-24T03:44:51;3.10;1.00
20231;DHT22;10274;49.022;9.338;2023-01-24T03:47:19;3.10;1.00
20231;DHT22;10274;49.022;9.338;2023-01-24T03:49:46;3.20;1.00
20231;DHT22;10274;49.022;9.338;2023-01-24T03:52:30;3.10;1.00
20231;DHT22;10274;49.022;9.338;2023-01-24T03:54:58;3.10;1.00
20231;DHT22;10274;49.022;9.338;2023-01-24T03:57:26;3.10;1.00
20231;DHT22;10274;49.022;9.338;2023-01-24T03:59:53;3.10;1.00
20231;DHT22;10274;49.022;9.338;2023-01-24T04:02:21;3.10;1.00
20231;DHT22;10274;49.022;9.338;2023-01-24T04:04:48;3.10;1.00
20231;DHT22;10274;49.022;9.338;2023-01-24T04:07:32;3.10;1.00
20231;DHT22;10274;49.022;9.338;2023-01-24T04:09:58;3.10;1.00
20231;DHT22;10274;49.022;9.338;2023-01-24T04:12:25;3.10;1.00
20231;DHT22;10274;49.022;9.338;2023-01-24T04:14:52;3.10;1.00
20231;DHT22;10274;49.022;9.338;2023-01-24T04:17:20;3.10;1.00
20231;DHT22;10274;49.022;9.338;2023-01-24T04:19:47;3.10;1.00
20231;DHT22;10274;49.022;9.338;2023-01-24T04:22:14;3.00;1.00
20231;DHT22;10274;49.022;9.338;2023-01-24T04:24:42;3.10;1.00
20231;DHT22;10274;49.022;9.338;2023-01-24T04:27:09;3.00;1.00
20231;DHT22;10274;49.022;9.338;2023-01-24T04:29:35;3.00;1.00
20231;DHT22;10274;49.022;9.338;2023-01-24T04:32:02;3.00;1.00
20231;DHT22;10274;49.022;9.338;2023-01-24T04:34:30;3.00;1.00
20231;DHT22;10274;49.022;9.338;2023-01-24T04:36:57;3.00;1.00
20231;DHT22;10274;49.022;9.338;2023-01-24T04:39:24;3.00;1.00
20231;DHT22;10274;49.022;9.338;2023-01-24T04:41:50;3.00;2.90
20231;DHT22;10274;49.022;9.338;2023-01-24T04:44:17;3.00;1.00
20231;DHT22;10274;49.022;9.338;2023-01-24T04:46:44;3.00;1.00
20231;DHT22;10274;49.022;9.338;2023-01-24T04:49:10;3.10;1.00
20231;DHT22;10274;49.022;9.338;2023-01-24T04:51:38;3.00;1.00
20231;DHT22;10274;49.022;9.338;2023-01-24T04:54:07;3.00;1.00
20231;DHT22;10274;49.022;9.338;2023-01-24T04:56:34;3.00;1.00
20231;DHT22;10274;49.022;9.338;2023-01-24T04:59:00;3.00;1.00
20231;DHT22;10274;49.022;9.338;2023-01-24T05:01:27;3.00;1.00
20231;DHT22;10274;49.022;9.338;2023-01-24T05:03:53;3.00;1.00
20231;DHT22;10274;49.022;9.338;2023-01-24T05:06:24;3.00;1.00
20231;DHT22;10274;49.022;9.338;2023-01-24T05:08:52;3.00;1.00
20231;DHT22;10274;49.022;9.338;2023-01-24T05:11:19;3.00;1.00
20231;DHT22;10274;49.022;9.338;2023-01-24T05:13:46;3.00;1.00
20231;DHT22;10274;49.022;9.338;2023-01-24T05:16:12;3.00;1.00
20231;DHT22;10274;49.022;9.338;2023-01-24T05:18:39;2.90;1.00
20231;DHT22;10274;49.022;9.338;2023-01-24T05:21:06;3.00;1.00
20231;DHT22;10274;49.022;9.338;2023-01-24T05:23:33;3.00;1.00
20231;DHT22;10274;49.022;9.338;2023-01-24T05:26:02;3.00;1.00
20231;DHT22;10274;49.022;9.338;2023-01-24T05:28:29;3.00;1.00
20231;DHT22;10274;49.022;9.338;2023-01-24T05:30:58;3.10;1.00
20231;DHT22;10274;49.022;9.338;2023-01-24T05:33:25;3.10;1.00
20231;DHT22;10274;49.022;9.338;2023-01-24T05:35:57;2.90;8.30
20231;DHT22;10274;49.022;9.338;2023-01-24T05:38:24;2.90;14.90
20231;DHT22;10274;49.022;9.338;2023-01-24T05:40:51;2.90;16.80
20231;DHT22;10274;49.022;9.338;2023-01-24T05:43:19;3.00;7.30
20231;DHT22;10274;49.022;9.338;2023-01-24T05:45:45;3.00;1.00
20231;DHT22;10274;49.022;9.338;2023-01-24T05:48:12;3.00;1.00
20231;DHT22;10274;49.022;9.338;2023-01-24T05:50:39;3.00;6.50
20231;DHT22;10274;49.022;9.338;2023-01-24T05:53:05;2.90;13.00
20231;DHT22;10274;49.022;9.338;2023-01-24T05:55:32;3.00;13.90
20231;DHT22;10274;49.022;9.338;2023-01-24T05:57:59;2.90;11.90
20231;DHT22;10274;49.022;9.338;2023-01-24T06:00:27;3.00;14.70
20231;DHT22;10274;49.022;9.338;2023-01-24T06:02:53;3.00;8.80
20231;DHT22;10274;49.022;9.338;2023-01-24T06:05:20;3.00;1.00
20231;DHT22;10274;49.022;9.338;2023-01-24T06:07:47;3.10;1.00
20231;DHT22;10274;49.022;9.338;2023-01-24T06:10:14;3.10;1.00
20231;DHT22;10274;49.022;9.338;2023-01-24T06:12:41;3.10;7.20
20231;DHT22;10274;49.022;9.338;2023-01-24T06:15:09;3.10;1.00
20231;DHT22;10274;49.022;9.338;2023-01-24T06:17:37;3.10;7.20
20231;DHT22;10274;49.022;9.338;2023-01-24T06:20:04;3.10;15.80
20231;DHT22;10274;49.022;9.338;2023-01-24T06:22:37;3.20;10.20
20231;DHT22;10274;49.022;9.338;2023-01-24T06:27:40;3.10;14.20
20231;DHT22;10274;49.022;9.338;2023-01-24T06:30:11;3.10;8.70
20231;DHT22;10274;49.022;9.338;2023-01-24T06:32:57;3.10;8.10
20231;DHT22;10274;49.022;9.338;2023-01-24T06:35:34;3.10;2.70
20231;DHT22;10274;49.022;9.338;2023-01-24T06:38:03;3.10;6.10
20231;DHT22;10274;49.022;9.338;2023-01-24T06:40:30;3.00;18.70
20231;DHT22;10274;49.022;9.338;2023-01-24T06:42:57;3.00;17.40
20231;DHT22;10274;49.022;9.338;2023-01-24T06:45:24;3.00;22.90
20231;DHT22;10274;49.022;9.338;2023-01-24T06:47:52;3.00;22.70
20231;DHT22;10274;49.022;9.338;2023-01-24T06:50:21;3.10;15.30
20231;DHT22;10274;49.022;9.338;2023-01-24T06:52:49;3.10;3.60
20231;DHT22;10274;49.022;9.338;2023-01-24T06:55:16;3.10;7.60
20231;DHT22;10274;49.022;9.338;2023-01-24T06:57:43;3.20;12.90
20231;DHT22;10274;49.022;9.338;2023-01-24T07:00:12;3.10;9.10
20231;DHT22;10274;49.022;9.338;2023-01-24T07:02:39;3.10;10.00
20231;DHT22;10274;49.022;9.338;2023-01-24T07:05:08;3.10;19.60
20231;DHT22;10274;49.022;9.338;2023-01-24T07:07:35;3.20;18.60
20231;DHT22;10274;49.022;9.338;2023-01-24T07:10:01;3.10;13.00
20231;DHT22;10274;49.022;9.338;2023-01-24T07:12:28;3.20;5.90
20231;DHT22;10274;49.022;9.338;2023-01-24T07:14:55;3.20;8.50
20231;DHT22;10274;49.022;9.338;2023-01-24T07:17:22;3.20;1.00
20231;DHT22;10274;49.022;9.338;2023-01-24T07:19:49;3.20;1.40
20231;DHT22;10274;49.022;9.338;2023-01-24T07:22:18;3.10;6.30
20231;DHT22;10274;49.022;9.338;2023-01-24T07:24:44;3.20;1.00
20231;DHT22;10274;49.022;9.338;2023-01-24T07:27:13;3.20;1.00
20231;DHT22;10274;49.022;9.338;2023-01-24T07:29:39;3.20;1.00
20231;DHT22;10274;49.022;9.338;2023-01-24T07:32:07;3.20;1.00
20231;DHT22;10274;49.022;9.338;2023-01-24T07:34:34;3.20;1.00
20231;DHT22;10274;49.022;9.338;2023-01-24T07:37:01;3.20;1.40
20231;DHT22;10274;49.022;9.338;2023-01-24T07:39:29;3.20;1.00
20231;DHT22;10274;49.022;9.338;2023-01-24T07:41:56;3.20;1.00
20231;DHT22;10274;49.022;9.338;2023-01-24T07:44:22;3.20;1.00
20231;DHT22;10274;49.022;9.338;2023-01-24T07:46:49;3.30;1.00
20231;DHT22;10274;49.022;9.338;2023-01-24T07:49:16;3.20;1.00
20231;DHT22;10274;49.022;9.338;2023-01-24T07:51:42;3.30;1.00
20231;DHT22;10274;49.022;9.338;2023-01-24T07:54:10;3.30;1.00
20231;DHT22;10274;49.022;9.338;2023-01-24T07:56:38;3.30;1.00
20231;DHT22;10274;49.022;9.338;2023-01-24T07:59:05;3.40;1.00
20231;DHT22;10274;49.022;9.338;2023-01-24T08:01:32;3.40;1.00
20231;DHT22;10274;49.022;9.338;2023-01-24T08:03:58;3.30;1.00
20231;DHT22;10274;49.022;9.338;2023-01-24T08:06:25;3.30;1.00
20231;DHT22;10274;49.022;9.338;2023-01-24T08:08:52;3.20;1.00
20231;DHT22;10274;49.022;9.338;2023-01-24T08:11:18;3.30;1.00
20231;DHT22;10274;49.022;9.338;2023-01-24T08:13:48;3.30;1.00
20231;DHT22;10274;49.022;9.338;2023-01-24T08:16:16;3.30;1.00
20231;DHT22;10274;49.022;9.338;2023-01-24T08:18:43;3.30;1.00
20231;DHT22;10274;49.022;9.338;2023-01-24T08:21:10;3.20;1.00
20231;DHT22;10274;49.022;9.338;2023-01-24T08:23:37;3.30;1.00
20231;DHT22;10274;49.022;9.338;2023-01-24T08:26:04;3.30;1.00
20231;DHT22;10274;49.022;9.338;2023-01-24T08:28:32;3.30;1.00
20231;DHT22;10274;49.022;9.338;2023-01-24T08:31:01;3.30;1.00
20231;DHT22;10274;49.022;9.338;2023-01-24T08:33:27;3.30;1.00
20231;DHT22;10274;49.022;9.338;2023-01-24T08:35:54;3.40;1.00
20231;DHT22;10274;49.022;9.338;2023-01-24T08:38:21;3.40;1.00
20231;DHT22;10274;49.022;9.338;2023-01-24T08:40:48;3.40;1.00
20231;DHT22;10274;49.022;9.338;2023-01-24T08:43:14;3.50;1.00
20231;DHT22;10274;49.022;9.338;2023-01-24T08:45:41;3.50;1.00
20231;DHT22;10274;49.022;9.338;2023-01-24T08:48:09;3.50;1.00
20231;DHT22;10274;49.022;9.338;2023-01-24T08:50:36;3.60;1.00
20231;DHT22;10274;49.022;9.338;2023-01-24T08:53:02;3.50;1.00
20231;DHT22;10274;49.022;9.338;2023-01-24T08:55:29;3.50;1.00
20231;DHT22;10274;49.022;9.338;2023-01-24T08:58:01;3.50;1.00
20231;DHT22;10274;49.022;9.338;2023-01-24T09:00:28;3.50;1.00
20231;DHT22;10274;49.022;9.338;2023-01-24T09:02:55;3.70;1.00
20231;DHT22;10274;49.022;9.338;2023-01-24T09:05:25;3.60;1.00
20231;DHT22;10274;49.022;9.338;2023-01-24T09:07:52;3.70;1.00
20231;DHT22;10274;49.022;9.338;2023-01-24T09:10:18;3.70;1.00
20231;DHT22;10274;49.022;9.338;2023-01-24T09:12:45;3.70;1.00
20231;DHT22;10274;49.022;9.338;2023-01-24T09:15:12;3.70;1.00
20231;DHT22;10274;49.022;9.338;2023-01-24T09:17:39;3.70;1.00
20231;DHT22;10274;49.022;9.338;2023-01-24T09:20:06;3.70;1.00
20231;DHT22;10274;49.022;9.338;2023-01-24T09:25:03;3.70;1.00
20231;DHT22;10274;49.022;9.338;2023-01-24T09:27:31;3.80;1.00
20231;DHT22;10274;49.022;9.338;2023-01-24T09:29:57;3.80;1.00
20231;DHT22;10274;49.022;9.338;2023-01-24T09:32:24;3.80;1.00
20231;DHT22;10274;49.022;9.338;2023-01-24T09:34:50;3.80;1.00
20231;DHT22;10274;49.022;9.338;2023-01-24T09:37:17;3.80;1.00
20231;DHT22;10274;49.022;9.338;2023-01-24T09:39:44;3.80;1.00
20231;DHT22;10274;49.022;9.338;2023-01-24T09:42:18;3.80;1.00
20231;DHT22;10274;49.022;9.338;2023-01-24T09:44:56;3.80;1.00
20231;DHT22;10274;49.022;9.338;2023-01-24T09:47:30;3.90;1.00
20231;DHT22;10274;49.022;9.338;2023-01-24T09:50:05;3.90;1.00
20231;DHT22;10274;49.022;9.338;2023-01-24T09:52:40;3.90;1.00
20231;DHT22;10274;49.022;9.338;2023-01-24T09:55:13;3.90;1.00
20231;DHT22;10274;49.022;9.338;2023-01-24T09:57:49;3.90;1.00
20231;DHT22;10274;49.022;9.338;2023-01-24T10:00:23;3.90;1.00
20231;DHT22;10274;49.022;9.338;2023-01-24T10:02:50;3.90;1.00
20231;DHT22;10274;49.022;9.338;2023-01-24T10:05:19;3.90;1.00
20231;DHT22;10274;49.022;9.338;2023-01-24T10:08:00;3.90;1.00
20231;DHT22;10274;49.022;9.338;2023-01-24T10:10:40;3.90;1.00
20231;DHT22;10274;49.022;9.338;2023-01-24T10:16:17;4.00;1.00
20231;DHT22;10274;49.022;9.338;2023-01-24T10:18:56;4.00;1.00
20231;DHT22;10274;49.022;9.338;2023-01-24T10:22:03;4.00;1.00
20231;DHT22;10274;49.022;9.338;2023-01-24T10:24:40;4.00;1.00
20231;DHT22;10274;49.022;9.338;2023-01-24T10:27:14;4.00;1.00
20231;DHT22;10274;49.022;9.338;2023-01-24T10:29:45;4.00;1.00
20231;DHT22;10274;49.022;9.338;2023-01-24T10:32:16;4.00;1.00
20231;DHT22;10274;49.022;9.338;2023-01-24T10:34:47;4.10;1.00
20231;DHT22;10274;49.022;9.338;2023-01-24T10:37:20;4.20;1.00
20231;DHT22;10274;49.022;9.338;2023-01-24T10:39:48;4.20;1.00
20231;DHT22;10274;49.022;9.338;2023-01-24T10:42:19;4.20;1.00
20231;DHT22;10274;49.022;9.338;2023-01-24T10:44:50;4.20;1.00
20231;DHT22;10274;49.022;9.338;2023-01-24T10:47:38;4.20;1.00
20231;DHT22;10274;49.022;9.338;2023-01-24T10:50:08;4.20;1.00
20231;DHT22;10274;49.022;9.338;2023-01-24T10:52:35;4.30;1.00
20231;DHT22;10274;49.022;9.338;2023-01-24T10:55:03;4.30;1.00
20231;DHT22;10274;49.022;9.338;2023-01-24T10:57:49;4.40;1.00
20231;DHT22;10274;49.022;9.338;2023-01-24T11:00:24;4.40;1.00
20231;DHT22;10274;49.022;9.338;2023-01-24T11:02:54;4.50;1.00
20231;DHT22;10274;49.022;9.338;2023-01-24T11:05:22;4.40;1.00
20231;DHT22;10274;49.022;9.338;2023-01-24T11:07:52;4.50;1.00
20231;DHT22;10274;49.022;9.338;2023-01-24T11:10:22;4.60;1.00
20231;DHT22;10274;49.022;9.338;2023-01-24T11:12:51;4.60;1.00
20231;DHT22;10274;49.022;9.338;2023-01-24T11:15:22;4.60;1.00
20231;DHT22;10274;49.022;9.338;2023-01-24T11:17:54;4.50;1.00
20231;DHT22;10274;49.022;9.338;2023-01-24T11:20:27;4.50;1.00
20231;DHT22;10274;49.022;9.338;2023-01-24T11:23:06;4.40;1.00
20231;DHT22;10274;49.022;9.338;2023-01-24T11:25:32;4.50;1.00
20231;DHT22;10274;49.022;9.338;2023-01-24T11:27:59;4.50;1.00
20231;DHT22;10274;49.022;9.338;2023-01-24T11:30:27;4.50;1.00
20231;DHT22;10274;49.022;9.338;2023-01-24T11:33:12;4.50;1.00
20231;DHT22;10274;49.022;9.338;2023-01-24T11:35:46;4.50;1.00
20231;DHT22;10274;49.022;9.338;2023-01-24T11:38:22;4.50;1.00
20231;DHT22;10274;49.022;9.338;2023-01-24T11:41:14;4.60;1.00
20231;DHT22;10274;49.022;9.338;2023-01-24T11:46:49;4.70;1.00
20231;DHT22;10274;49.022;9.338;2023-01-24T11:52:29;4.80;1.00
20231;DHT22;10274;49.022;9.338;2023-01-24T11:55:03;4.80;1.00
20231;DHT22;10274;49.022;9.338;2023-01-24T11:57:40;4.70;1.00
20231;DHT22;10274;49.022;9.338;2023-01-24T12:00:24;4.70;1.00
20231;DHT22;10274;49.022;9.338;2023-01-24T12:03:09;4.80;1.00
20231;DHT22;10274;49.022;9.338;2023-01-24T12:05:50;4.80;1.00
20231;DHT22;10274;49.022;9.338;2023-01-24T12:08:32;4.80;1.00
20231;DHT22;10274;49.022;9.338;2023-01-24T12:11:06;4.70;1.00
20231;DHT22;10274;49.022;9.338;2023-01-24T12:13:43;4.80;1.00
20231;DHT22;10274;49.022;9.338;2023-01-24T12:16:20;4.80;1.00
20231;DHT22;10274;49.022;9.338;2023-01-24T12:19:07;4.80;1.00
20231;DHT22;10274;49.022;9.338;2023-01-24T12:21:40;4.70;1.00
20231;DHT22;10274;49.022;9.338;2023-01-24T12:24:11;4.80;1.00
20231;DHT22;10274;49.022;9.338;2023-01-24T12:26:42;4.90;1.00
20231;DHT22;10274;49.022;9.338;2023-01-24T12:29:14;4.90;1.00
20231;DHT22;10274;49.022;9.338;2023-01-24T12:31:46;4.90;1.00
20231;DHT22;10274;49.022;9.338;2023-01-24T12:34:37;4.80;1.00
20231;DHT22;10274;49.022;9.338;2023-01-24T12:37:13;4.90;1.00
20231;DHT22;10274;49.022;9.338;2023-01-24T12:39:45;4.70;1.00
20231;DHT22;10274;49.022;9.338;2023-01-24T12:42:16;4.70;1.00
20231;DHT22;10274;49.022;9.338;2023-01-24T12:44:48;4.80;1.00
20231;DHT22;10274;49.022;9.338;2023-01-24T12:47:31;4.80;1.00
20231;DHT22;10274;49.022;9.338;2023-01-24T12:50:15;4.80;1.00
20231;DHT22;10274;49.022;9.338;2023-01-24T12:52:51;4.70;1.00
20231;DHT22;10274;49.022;9.338;2023-01-24T12:55:22;4.70;1.00
20231;DHT22;10274;49.022;9.338;2023-01-24T12:57:53;4.70;1.00
20231;DHT22;10274;49.022;9.338;2023-01-24T13:00:23;4.80;1.00
20231;DHT22;10274;49.022;9.338;2023-01-24T13:03:09;4.70;1.00
20231;DHT22;10274;49.022;9.338;2023-01-24T13:05:47;4.70;1.00
20231;DHT22;10274;49.022;9.338;2023-01-24T13:08:29;4.60;1.00
20231;DHT22;10274;49.022;9.338;2023-01-24T13:11:12;4.60;1.00
20231;DHT22;10274;49.022;9.338;2023-01-24T13:13:47;4.60;1.00
20231;DHT22;10274;49.022;9.338;2023-01-24T13:16:43;4.50;1.00
20231;DHT22;10274;49.022;9.338;2023-01-24T13:19:18;4.50;1.00
20231;DHT22;10274;49.022;9.338;2023-01-24T13:21:53;4.60;1.00
20231;DHT22;10274;49.022;9.338;2023-01-24T13:24:39;4.70;1.00
20231;DHT22;10274;49.022;9.338;2023-01-24T13:27:30;4.70;1.00
20231;DHT22;10274;49.022;9.338;2023-01-24T13:30:22;4.60;1.00
20231;DHT22;10274;49.022;9.338;2023-01-24T13:32:57;4.60;1.00
20231;DHT22;10274;49.022;9.338;2023-01-24T13:35:26;4.60;1.00
20231;DHT22;10274;49.022;9.338;2023-01-24T13:38:02;4.70;1.00
20231;DHT22;10274;49.022;9.338;2023-01-24T13:40:30;4.70;1.00
20231;DHT22;10274;49.022;9.338;2023-01-24T13:43:01;4.80;1.00
20231;DHT22;10274;49.022;9.338;2023-01-24T13:45:47;4.80;1.00
20231;DHT22;10274;49.022;9.338;2023-01-24T13:48:47;4.80;1.00
20231;DHT22;10274;49.022;9.338;2023-01-24T13:51:34;4.70;1.00
20231;DHT22;10274;49.022;9.338;2023-01-24T13:54:04;4.70;1.00
20231;DHT22;10274;49.022;9.338;2023-01-24T13:56:31;4.60;1.00
20231;DHT22;10274;49.022;9.338;2023-01-24T13:58:59;4.60;1.00
20231;DHT22;10274;49.022;9.338;2023-01-24T14:01:26;4.60;1.00
20231;DHT22;10274;49.022;9.338;2023-01-24T14:03:58;4.60;1.00
20231;DHT22;10274;49.022;9.338;2023-01-24T14:06:26;4.60;1.00
20231;DHT22;10274;49.022;9.338;2023-01-24T14:09:18;4.50;1.00
20231;DHT22;10274;49.022;9.338;2023-01-24T14:11:57;4.50;1.00
20231;DHT22;10274;49.022;9.338;2023-01-24T14:17:44;4.30;1.00
20231;DHT22;10274;49.022;9.338;2023-01-24T14:20:25;4.40;1.00
20231;DHT22;10274;49.022;9.338;2023-01-24T14:22:58;4.30;1.00
20231;DHT22;10274;49.022;9.338;2023-01-24T14:25:38;4.30;1.00
20231;DHT22;10274;49.022;9.338;2023-01-24T14:28:15;4.30;1.00
20231;DHT22;10274;49.022;9.338;2023-01-24T14:30:45;4.30;1.00
20231;DHT22;10274;49.022;9.338;2023-01-24T14:33:23;4.30;1.00
20231;DHT22;10274;49.022;9.338;2023-01-24T14:36:00;4.30;1.00
20231;DHT22;10274;49.022;9.338;2023-01-24T14:38:27;4.30;1.00
20231;DHT22;10274;49.022;9.338;2023-01-24T14:40:55;4.10;1.00
20231;DHT22;10274;49.022;9.338;2023-01-24T14:43:33;4.10;1.00
20231;DHT22;10274;49.022;9.338;2023-01-24T14:46:15;4.20;1.00
20231;DHT22;10274;49.022;9.338;2023-01-24T14:48:43;4.20;1.00
20231;DHT22;10274;49.022;9.338;2023-01-24T14:51:15;4.20;1.00
20231;DHT22;10274;49.022;9.338;2023-01-24T14:53:47;4.10;1.00
20231;DHT22;10274;49.022;9.338;2023-01-24T14:56:16;4.10;1.00
20231;DHT22;10274;49.022;9.338;2023-01-24T14:58:43;4.00;1.00
20231;DHT22;10274;49.022;9.338;2023-01-24T15:01:26;4.10;1.00
20231;DHT22;10274;49.022;9.338;2023-01-24T15:03:53;4.10;1.00
20231;DHT22;10274;49.022;9.338;2023-01-24T15:06:23;4.10;1.00
20231;DHT22;10274;49.022;9.338;2023-01-24T15:08:54;4.00;1.00
20231;DHT22;10274;49.022;9.338;2023-01-24T15:11:26;4.00;1.00
20231;DHT22;10274;49.022;9.338;2023-01-24T15:13:56;4.00;1.00
20231;DHT22;10274;49.022;9.338;2023-01-24T15:16:29;4.00;1.00
20231;DHT22;10274;49.022;9.338;2023-01-24T15:19:02;4.00;1.00
20231;DHT22;10274;49.022;9.338;2023-01-24T15:21:32;4.00;1.00
20231;DHT22;10274;49.022;9.338;2023-01-24T15:24:00;3.90;1.00
20231;DHT22;10274;49.022;9.338;2023-01-24T15:26:39;3.90;1.00
20231;DHT22;10274;49.022;9.338;2023-01-24T15:29:42;4.00;1.00
20231;DHT22;10274;49.022;9.338;2023-01-24T15:32:29;4.00;1.00
20231;DHT22;10274;49.022;9.338;2023-01-24T15:35:30;4.00;1.00
20231;DHT22;10274;49.022;9.338;2023-01-24T15:38:06;4.00;1.00
20231;DHT22;10274;49.022;9.338;2023-01-24T15:40:37;3.90;1.00
20231;DHT22;10274;49.022;9.338;2023-01-24T15:43:16;3.90;1.00
20231;DHT22;10274;49.022;9.338;2023-01-24T15:46:02;3.90;1.00
20231;DHT22;10274;49.022;9.338;2023-01-24T15:48:55;3.90;1.00
20231;DHT22;10274;49.022;9.338;2023-01-24T15:51:30;3.90;1.00
20231;DHT22;10274;49.022;9.338;2023-01-24T15:53:58;4.00;1.00
20231;DHT22;10274;49.022;9.338;2023-01-24T15:56:27;3.90;1.00
20231;DHT22;10274;49.022;9.338;2023-01-24T15:58:56;3.90;1.00
20231;DHT22;10274;49.022;9.338;2023-01-24T16:01:27;3.80;1.00
20231;DHT22;10274;49.022;9.338;2023-01-24T16:03:55;3.90;1.00
20231;DHT22;10274;49.022;9.338;2023-01-24T16:06:22;3.80;1.00
20231;DHT22;10274;49.022;9.338;2023-01-24T16:08:49;3.80;1.00
20231;DHT22;10274;49.022;9.338;2023-01-24T16:11:15;3.80;1.00
20231;DHT22;10274;49.022;9.338;2023-01-24T16:13:47;3.80;1.00
20231;DHT22;10274;49.022;9.338;2023-01-24T16:16:22;3.80;1.00
20231;DHT22;10274;49.022;9.338;2023-01-24T16:18:49;3.70;1.00
20231;DHT22;10274;49.022;9.338;2023-01-24T16:21:16;3.70;1.00
20231;DHT22;10274;49.022;9.338;2023-01-24T16:23:42;3.70;1.00
20231;DHT22;10274;49.022;9.338;2023-01-24T16:26:18;3.70;1.00
20231;DHT22;10274;49.022;9.338;2023-01-24T16:28:46;3.70;1.00
20231;DHT22;10274;49.022;9.338;2023-01-24T16:31:12;3.70;1.00
20231;DHT22;10274;49.022;9.338;2023-01-24T16:33:40;3.70;1.00
20231;DHT22;10274;49.022;9.338;2023-01-24T16:36:09;3.70;1.00
20231;DHT22;10274;49.022;9.338;2023-01-24T16:38:37;3.70;1.00
20231;DHT22;10274;49.022;9.338;2023-01-24T16:41:04;3.70;1.00
20231;DHT22;10274;49.022;9.338;2023-01-24T16:43:31;3.70;1.00